sensor_id;sensor_type;location;lat;lon;timestamp;temperature;humidity
10538;DHT22;5317;49.048;8.468;2023-05-16T00:25:36;18.70;73.80
10538;DHT22;5317;49.048;8.468;2023-05-16T00:28:03;18.70;73.90
10538;DHT22;5317;49.048;8.468;2023-05-16T00:30:30;18.70;73.20
10538;DHT22;5317;49.048;8.468;2023-05-16T00:32:57;18.70;73.20
10538;DHT22;5317;49.048;8.468;2023-05-16T00:35:25;18.70;73.20
10538;DHT22;5317;49.048;8.468;2023-05-16T00:37:52;18.70;73.20
10538;DHT22;5317;49.048;8.468;2023-05-16T00:40:19;18.70;73.20
10538;DHT22;5317;49.048;8.468;2023-05-16T00:42:47;18.70;73.20
10538;DHT22;5317;49.048;8.468;2023-05-16T00:45:14;18.80;74.00
10538;DHT22;5317;49.048;8.468;2023-05-16T00:47:41;18.70;73.00
10538;DHT22;5317;49.048;8.468;2023-05-16T00:50:08;18.80;73.00
10538;DHT22;5317;49.048;8.468;2023-05-16T00:52:36;18.80;72.90
10538;DHT22;5317;49.048;8.468;2023-05-16T00:55:03;18.70;72.80
10538;DHT22;5317;49.048;8.468;2023-05-16T00:57:31;18.70;72.80
10538;DHT22;5317;49.048;8.468;2023-05-16T00:59:59;18.70;73.00
10538;DHT22;5317;49.048;8.468;2023-05-16T01:02:27;18.70;72.90
10538;DHT22;5317;49.048;8.468;2023-05-16T01:04:55;18.70;72.80
10538;DHT22;5317;49.048;8.468;2023-05-16T01:07:22;18.70;72.70
10538;DHT22;5317;49.048;8.468;2023-05-16T01:09:49;18.60;72.40
10538;DHT22;5317;49.048;8.468;2023-05-16T01:12:20;18.60;72.50
10538;DHT22;5317;49.048;8.468;2023-05-16T01:14:55;18.60;72.60
10538;DHT22;5317;49.048;8.468;2023-05-16T01:17:33;18.60;72.50
10538;DHT22;5317;49.048;8.468;2023-05-16T01:20:07;18.70;72.50
10538;DHT22;5317;49.048;8.468;2023-05-16T01:22:51;18.60;72.30
10538;DHT22;5317;49.048;8.468;2023-05-16T01:25:30;18.60;72.60
10538;DHT22;5317;49.048;8.468;2023-05-16T01:28:00;18.60;72.60
10538;DHT22;5317;49.048;8.468;2023-05-16T01:30:32;18.60;72.60
10538;DHT22;5317;49.048;8.468;2023-05-16T01:33:00;18.60;72.80
10538;DHT22;5317;49.048;8.468;2023-05-16T01:35:27;18.60;72.90
10538;DHT22;5317;49.048;8.468;2023-05-16T01:37:58;18.60;72.90
10538;DHT22;5317;49.048;8.468;2023-05-16T01:40:35;18.50;72.90
10538;DHT22;5317;49.048;8.468;2023-05-16T01:43:14;18.50;73.40
10538;DHT22;5317;49.048;8.468;2023-05-16T01:45:47;18.40;73.40
10538;DHT22;5317;49.048;8.468;2023-05-16T01:48:19;18.50;73.50
10538;DHT22;5317;49.048;8.468;2023-05-16T01:50:54;18.40;73.50
10538;DHT22;5317;49.048;8.468;2023-05-16T01:53:26;18.40;73.70
10538;DHT22;5317;49.048;8.468;2023-05-16T01:55:56;18.40;73.50
10538;DHT22;5317;49.048;8.468;2023-05-16T01:58:28;18.40;73.70
10538;DHT22;5317;49.048;8.468;2023-05-16T02:01:00;18.40;73.70
10538;DHT22;5317;49.048;8.468;2023-05-16T02:03:28;18.40;73.80
10538;DHT22;5317;49.048;8.468;2023-05-16T02:05:55;18.30;73.90
10538;DHT22;5317;49.048;8.468;2023-05-16T02:08:22;18.30;73.60
10538;DHT22;5317;49.048;8.468;2023-05-16T02:10:50;18.30;73.80
10538;DHT22;5317;49.048;8.468;2023-05-16T02:13:17;18.30;73.90
10538;DHT22;5317;49.048;8.468;2023-05-16T02:15:45;18.30;73.90
10538;DHT22;5317;49.048;8.468;2023-05-16T02:18:12;18.30;73.60
10538;DHT22;5317;49.048;8.468;2023-05-16T02:20:39;18.30;73.50
10538;DHT22;5317;49.048;8.468;2023-05-16T02:23:06;18.30;73.60
10538;DHT22;5317;49.048;8.468;2023-05-16T02:25:32;18.20;73.60
10538;DHT22;5317;49.048;8.468;2023-05-16T02:27:59;18.20;73.70
10538;DHT22;5317;49.048;8.468;2023-05-16T02:30:26;18.20;73.60
10538;DHT22;5317;49.048;8.468;2023-05-16T02:32:54;18.20;73.50
10538;DHT22;5317;49.048;8.468;2023-05-16T02:35:21;18.20;73.80
10538;DHT22;5317;49.048;8.468;2023-05-16T02:37:48;18.20;73.50
10538;DHT22;5317;49.048;8.468;2023-05-16T02:40:15;18.20;73.90
10538;DHT22;5317;49.048;8.468;2023-05-16T02:42:42;18.20;73.90
10538;DHT22;5317;49.048;8.468;2023-05-16T02:45:10;18.20;73.50
10538;DHT22;5317;49.048;8.468;2023-05-16T02:47:37;18.20;73.40
10538;DHT22;5317;49.048;8.468;2023-05-16T02:50:06;18.20;73.40
10538;DHT22;5317;49.048;8.468;2023-05-16T02:52:32;18.20;73.50
10538;DHT22;5317;49.048;8.468;2023-05-16T02:55:00;18.10;73.40
10538;DHT22;5317;49.048;8.468;2023-05-16T02:57:27;18.20;73.60
10538;DHT22;5317;49.048;8.468;2023-05-16T02:59:54;18.20;73.80
10538;DHT22;5317;49.048;8.468;2023-05-16T03:02:21;18.10;73.80
10538;DHT22;5317;49.048;8.468;2023-05-16T03:04:48;18.10;73.80
10538;DHT22;5317;49.048;8.468;2023-05-16T03:07:16;18.10;74.00
10538;DHT22;5317;49.048;8.468;2023-05-16T03:09:43;18.10;74.10
10538;DHT22;5317;49.048;8.468;2023-05-16T03:12:10;18.10;73.80
10538;DHT22;5317;49.048;8.468;2023-05-16T03:14:36;18.10;74.00
10538;DHT22;5317;49.048;8.468;2023-05-16T03:17:03;18.10;73.80
10538;DHT22;5317;49.048;8.468;2023-05-16T03:19:31;18.10;73.70
10538;DHT22;5317;49.048;8.468;2023-05-16T03:21:57;18.10;73.80
10538;DHT22;5317;49.048;8.468;2023-05-16T03:24:26;18.00;73.80
10538;DHT22;5317;49.048;8.468;2023-05-16T03:26:53;18.10;73.80
10538;DHT22;5317;49.048;8.468;2023-05-16T03:29:19;18.00;73.70
10538;DHT22;5317;49.048;8.468;2023-05-16T03:31:46;18.10;73.80
10538;DHT22;5317;49.048;8.468;2023-05-16T03:34:13;18.10;73.80
10538;DHT22;5317;49.048;8.468;2023-05-16T03:36:40;18.10;73.90
10538;DHT22;5317;49.048;8.468;2023-05-16T03:39:10;18.10;73.80
10538;DHT22;5317;49.048;8.468;2023-05-16T03:41:39;18.10;73.60
10538;DHT22;5317;49.048;8.468;2023-05-16T03:44:05;18.10;73.60
10538;DHT22;5317;49.048;8.468;2023-05-16T03:46:32;18.10;73.40
10538;DHT22;5317;49.048;8.468;2023-05-16T03:49:00;18.10;73.40
10538;DHT22;5317;49.048;8.468;2023-05-16T03:51:27;18.00;73.30
10538;DHT22;5317;49.048;8.468;2023-05-16T03:53:55;18.10;73.30
10538;DHT22;5317;49.048;8.468;2023-05-16T03:56:22;18.00;73.20
10538;DHT22;5317;49.048;8.468;2023-05-16T03:58:50;18.00;73.20
10538;DHT22;5317;49.048;8.468;2023-05-16T04:01:18;18.00;73.30
10538;DHT22;5317;49.048;8.468;2023-05-16T04:03:45;18.00;73.40
10538;DHT22;5317;49.048;8.468;2023-05-16T04:06:12;18.00;73.50
10538;DHT22;5317;49.048;8.468;2023-05-16T04:08:39;17.90;73.40
10538;DHT22;5317;49.048;8.468;2023-05-16T04:11:09;18.00;73.40
10538;DHT22;5317;49.048;8.468;2023-05-16T04:13:36;17.90;73.40
10538;DHT22;5317;49.048;8.468;2023-05-16T04:16:05;17.90;73.30
10538;DHT22;5317;49.048;8.468;2023-05-16T04:18:32;17.90;73.40
10538;DHT22;5317;49.048;8.468;2023-05-16T04:20:59;17.90;73.30
10538;DHT22;5317;49.048;8.468;2023-05-16T04:23:26;17.90;73.40
10538;DHT22;5317;49.048;8.468;2023-05-16T04:25:53;17.90;73.40
10538;DHT22;5317;49.048;8.468;2023-05-16T04:28:21;17.90;73.40
10538;DHT22;5317;49.048;8.468;2023-05-16T04:30:48;17.90;73.20
10538;DHT22;5317;49.048;8.468;2023-05-16T04:33:16;17.80;73.00
10538;DHT22;5317;49.048;8.468;2023-05-16T04:35:43;17.80;73.00
10538;DHT22;5317;49.048;8.468;2023-05-16T04:38:10;17.80;73.10
10538;DHT22;5317;49.048;8.468;2023-05-16T04:40:37;17.90;73.20
10538;DHT22;5317;49.048;8.468;2023-05-16T04:43:06;17.80;73.00
10538;DHT22;5317;49.048;8.468;2023-05-16T04:45:33;17.80;72.90
10538;DHT22;5317;49.048;8.468;2023-05-16T04:48:00;17.80;72.90
10538;DHT22;5317;49.048;8.468;2023-05-16T04:50:28;17.80;73.00
10538;DHT22;5317;49.048;8.468;2023-05-16T04:52:55;17.80;73.00
10538;DHT22;5317;49.048;8.468;2023-05-16T04:55:22;17.80;73.00
10538;DHT22;5317;49.048;8.468;2023-05-16T04:57:49;17.80;73.00
10538;DHT22;5317;49.048;8.468;2023-05-16T05:00:16;17.80;73.00
10538;DHT22;5317;49.048;8.468;2023-05-16T05:02:43;17.80;73.00
10538;DHT22;5317;49.048;8.468;2023-05-16T05:05:10;17.80;72.90
10538;DHT22;5317;49.048;8.468;2023-05-16T05:07:38;17.80;72.80
10538;DHT22;5317;49.048;8.468;2023-05-16T05:10:06;17.80;72.70
10538;DHT22;5317;49.048;8.468;2023-05-16T05:12:34;17.80;72.60
10538;DHT22;5317;49.048;8.468;2023-05-16T05:15:01;17.70;72.50
10538;DHT22;5317;49.048;8.468;2023-05-16T05:17:28;17.70;72.90
10538;DHT22;5317;49.048;8.468;2023-05-16T05:19:55;17.80;73.00
10538;DHT22;5317;49.048;8.468;2023-05-16T05:22:22;17.80;72.90
10538;DHT22;5317;49.048;8.468;2023-05-16T05:24:50;17.90;72.80
10538;DHT22;5317;49.048;8.468;2023-05-16T05:27:17;17.90;72.90
10538;DHT22;5317;49.048;8.468;2023-05-16T05:29:44;17.90;72.70
10538;DHT22;5317;49.048;8.468;2023-05-16T05:32:11;17.90;72.60
10538;DHT22;5317;49.048;8.468;2023-05-16T05:34:38;18.00;72.60
10538;DHT22;5317;49.048;8.468;2023-05-16T05:37:06;18.00;72.70
10538;DHT22;5317;49.048;8.468;2023-05-16T05:39:34;18.00;72.30
10538;DHT22;5317;49.048;8.468;2023-05-16T05:42:02;18.00;72.50
10538;DHT22;5317;49.048;8.468;2023-05-16T05:44:29;18.00;72.50
10538;DHT22;5317;49.048;8.468;2023-05-16T05:46:57;18.00;72.40
10538;DHT22;5317;49.048;8.468;2023-05-16T05:49:24;18.00;72.60
10538;DHT22;5317;49.048;8.468;2023-05-16T05:51:51;18.00;72.50
10538;DHT22;5317;49.048;8.468;2023-05-16T05:54:18;18.10;72.20
10538;DHT22;5317;49.048;8.468;2023-05-16T05:56:45;18.10;71.90
10538;DHT22;5317;49.048;8.468;2023-05-16T05:59:14;18.00;71.90
10538;DHT22;5317;49.048;8.468;2023-05-16T06:01:47;18.00;71.90
10538;DHT22;5317;49.048;8.468;2023-05-16T06:04:17;18.00;71.80
10538;DHT22;5317;49.048;8.468;2023-05-16T06:06:44;18.00;71.50
10538;DHT22;5317;49.048;8.468;2023-05-16T06:09:11;18.00;71.40
10538;DHT22;5317;49.048;8.468;2023-05-16T06:11:38;18.10;71.50
10538;DHT22;5317;49.048;8.468;2023-05-16T06:14:05;18.10;71.40
10538;DHT22;5317;49.048;8.468;2023-05-16T06:16:33;18.10;71.30
10538;DHT22;5317;49.048;8.468;2023-05-16T06:19:00;18.10;71.40
10538;DHT22;5317;49.048;8.468;2023-05-16T06:21:27;18.10;71.40
10538;DHT22;5317;49.048;8.468;2023-05-16T06:23:54;18.10;71.50
10538;DHT22;5317;49.048;8.468;2023-05-16T06:26:21;18.20;71.60
10538;DHT22;5317;49.048;8.468;2023-05-16T06:28:48;18.20;71.30
10538;DHT22;5317;49.048;8.468;2023-05-16T06:31:15;18.20;71.40
10538;DHT22;5317;49.048;8.468;2023-05-16T06:33:43;18.30;71.40
10538;DHT22;5317;49.048;8.468;2023-05-16T06:36:10;18.30;70.90
10538;DHT22;5317;49.048;8.468;2023-05-16T06:38:37;18.20;70.80
10538;DHT22;5317;49.048;8.468;2023-05-16T06:41:04;18.30;70.80
10538;DHT22;5317;49.048;8.468;2023-05-16T06:43:31;18.30;70.90
10538;DHT22;5317;49.048;8.468;2023-05-16T06:45:57;18.30;70.90
10538;DHT22;5317;49.048;8.468;2023-05-16T06:48:24;18.20;71.00
10538;DHT22;5317;49.048;8.468;2023-05-16T06:50:53;18.20;70.90
10538;DHT22;5317;49.048;8.468;2023-05-16T06:53:20;18.20;70.80
10538;DHT22;5317;49.048;8.468;2023-05-16T06:55:47;18.20;70.80
10538;DHT22;5317;49.048;8.468;2023-05-16T06:58:14;18.30;70.90
10538;DHT22;5317;49.048;8.468;2023-05-16T07:00:40;18.30;70.90
10538;DHT22;5317;49.048;8.468;2023-05-16T07:03:08;18.30;70.90
10538;DHT22;5317;49.048;8.468;2023-05-16T07:05:35;18.30;70.80
10538;DHT22;5317;49.048;8.468;2023-05-16T07:08:04;18.30;70.30
10538;DHT22;5317;49.048;8.468;2023-05-16T07:10:31;18.30;70.40
10538;DHT22;5317;49.048;8.468;2023-05-16T07:12:58;18.30;70.20
10538;DHT22;5317;49.048;8.468;2023-05-16T07:15:26;18.20;69.80
10538;DHT22;5317;49.048;8.468;2023-05-16T07:17:52;18.30;70.10
10538;DHT22;5317;49.048;8.468;2023-05-16T07:20:19;18.30;70.10
10538;DHT22;5317;49.048;8.468;2023-05-16T07:22:46;18.30;69.80
10538;DHT22;5317;49.048;8.468;2023-05-16T07:25:15;18.30;69.60
10538;DHT22;5317;49.048;8.468;2023-05-16T07:27:42;18.40;69.70
10538;DHT22;5317;49.048;8.468;2023-05-16T07:30:11;18.40;69.70
10538;DHT22;5317;49.048;8.468;2023-05-16T07:32:38;18.40;69.20
10538;DHT22;5317;49.048;8.468;2023-05-16T07:35:06;18.50;69.20
10538;DHT22;5317;49.048;8.468;2023-05-16T07:37:34;18.50;69.10
10538;DHT22;5317;49.048;8.468;2023-05-16T07:40:01;18.50;68.50
10538;DHT22;5317;49.048;8.468;2023-05-16T07:42:30;18.50;68.80
10538;DHT22;5317;49.048;8.468;2023-05-16T07:44:58;18.40;68.60
10538;DHT22;5317;49.048;8.468;2023-05-16T07:47:26;18.40;68.60
10538;DHT22;5317;49.048;8.468;2023-05-16T07:49:53;18.40;68.60
10538;DHT22;5317;49.048;8.468;2023-05-16T07:52:20;18.40;68.80
10538;DHT22;5317;49.048;8.468;2023-05-16T07:54:47;18.50;68.70
10538;DHT22;5317;49.048;8.468;2023-05-16T07:57:14;18.50;69.60
10538;DHT22;5317;49.048;8.468;2023-05-16T07:59:43;18.50;68.80
10538;DHT22;5317;49.048;8.468;2023-05-16T08:02:10;18.50;68.60
10538;DHT22;5317;49.048;8.468;2023-05-16T08:04:37;18.50;68.60
10538;DHT22;5317;49.048;8.468;2023-05-16T08:07:05;18.60;68.40
10538;DHT22;5317;49.048;8.468;2023-05-16T08:09:32;18.50;68.30
10538;DHT22;5317;49.048;8.468;2023-05-16T08:11:59;18.50;68.20
10538;DHT22;5317;49.048;8.468;2023-05-16T08:14:28;18.50;68.50
10538;DHT22;5317;49.048;8.468;2023-05-16T08:16:58;18.60;68.60
10538;DHT22;5317;49.048;8.468;2023-05-16T08:19:25;18.60;68.60
10538;DHT22;5317;49.048;8.468;2023-05-16T08:21:52;18.60;68.60
10538;DHT22;5317;49.048;8.468;2023-05-16T08:24:19;18.60;68.60
10538;DHT22;5317;49.048;8.468;2023-05-16T08:26:46;18.50;68.50
10538;DHT22;5317;49.048;8.468;2023-05-16T08:29:13;18.50;68.60
10538;DHT22;5317;49.048;8.468;2023-05-16T08:31:40;18.50;68.50
10538;DHT22;5317;49.048;8.468;2023-05-16T08:34:08;18.50;68.20
10538;DHT22;5317;49.048;8.468;2023-05-16T08:36:35;18.60;68.20
10538;DHT22;5317;49.048;8.468;2023-05-16T08:39:02;18.60;68.20
10538;DHT22;5317;49.048;8.468;2023-05-16T08:41:30;18.60;68.40
10538;DHT22;5317;49.048;8.468;2023-05-16T08:43:57;18.60;68.20
10538;DHT22;5317;49.048;8.468;2023-05-16T08:46:25;18.60;68.30
10538;DHT22;5317;49.048;8.468;2023-05-16T08:48:57;18.60;68.20
10538;DHT22;5317;49.048;8.468;2023-05-16T08:51:27;18.60;68.00
10538;DHT22;5317;49.048;8.468;2023-05-16T08:53:59;18.50;67.90
10538;DHT22;5317;49.048;8.468;2023-05-16T08:56:28;18.50;68.00
10538;DHT22;5317;49.048;8.468;2023-05-16T08:58:56;18.50;68.00
10538;DHT22;5317;49.048;8.468;2023-05-16T09:01:23;18.50;67.70
10538;DHT22;5317;49.048;8.468;2023-05-16T09:03:51;18.50;67.60
10538;DHT22;5317;49.048;8.468;2023-05-16T09:06:18;18.40;67.20
10538;DHT22;5317;49.048;8.468;2023-05-16T09:08:47;18.30;67.30
10538;DHT22;5317;49.048;8.468;2023-05-16T09:11:14;18.30;67.50
10538;DHT22;5317;49.048;8.468;2023-05-16T09:13:41;18.20;67.10
10538;DHT22;5317;49.048;8.468;2023-05-16T09:16:10;18.20;67.30
10538;DHT22;5317;49.048;8.468;2023-05-16T09:18:38;18.30;67.30
10538;DHT22;5317;49.048;8.468;2023-05-16T09:21:05;18.40;67.50
10538;DHT22;5317;49.048;8.468;2023-05-16T09:23:33;18.40;67.20
10538;DHT22;5317;49.048;8.468;2023-05-16T09:26:02;18.50;67.00
10538;DHT22;5317;49.048;8.468;2023-05-16T09:28:32;18.60;66.70
10538;DHT22;5317;49.048;8.468;2023-05-16T09:30:59;18.60;66.50
10538;DHT22;5317;49.048;8.468;2023-05-16T09:33:27;18.70;66.20
10538;DHT22;5317;49.048;8.468;2023-05-16T09:35:55;18.80;66.20
10538;DHT22;5317;49.048;8.468;2023-05-16T09:38:23;18.80;66.30
10538;DHT22;5317;49.048;8.468;2023-05-16T09:40:51;18.90;66.30
10538;DHT22;5317;49.048;8.468;2023-05-16T09:43:23;19.10;66.50
10538;DHT22;5317;49.048;8.468;2023-05-16T09:45:50;19.20;66.10
10538;DHT22;5317;49.048;8.468;2023-05-16T09:48:19;19.30;65.50
10538;DHT22;5317;49.048;8.468;2023-05-16T09:50:47;19.50;65.40
10538;DHT22;5317;49.048;8.468;2023-05-16T09:53:15;19.60;64.80
10538;DHT22;5317;49.048;8.468;2023-05-16T09:55:43;19.70;64.60
10538;DHT22;5317;49.048;8.468;2023-05-16T09:58:09;19.80;64.60
10538;DHT22;5317;49.048;8.468;2023-05-16T10:00:38;19.90;64.00
10538;DHT22;5317;49.048;8.468;2023-05-16T10:03:07;19.90;63.70
10538;DHT22;5317;49.048;8.468;2023-05-16T10:05:35;20.00;63.20
10538;DHT22;5317;49.048;8.468;2023-05-16T10:08:03;19.90;63.20
10538;DHT22;5317;49.048;8.468;2023-05-16T10:10:33;19.90;62.40
10538;DHT22;5317;49.048;8.468;2023-05-16T10:13:04;19.70;62.70
10538;DHT22;5317;49.048;8.468;2023-05-16T10:15:31;19.80;63.40
10538;DHT22;5317;49.048;8.468;2023-05-16T10:18:00;19.80;63.60
10538;DHT22;5317;49.048;8.468;2023-05-16T10:20:28;19.90;63.40
10538;DHT22;5317;49.048;8.468;2023-05-16T10:22:55;19.90;63.00
10538;DHT22;5317;49.048;8.468;2023-05-16T10:25:28;19.80;62.70
10538;DHT22;5317;49.048;8.468;2023-05-16T10:27:58;19.80;63.10
10538;DHT22;5317;49.048;8.468;2023-05-16T10:30:25;19.80;62.90
10538;DHT22;5317;49.048;8.468;2023-05-16T10:32:53;19.70;62.60
10538;DHT22;5317;49.048;8.468;2023-05-16T10:35:22;19.60;62.00
10538;DHT22;5317;49.048;8.468;2023-05-16T10:37:51;19.50;61.50
10538;DHT22;5317;49.048;8.468;2023-05-16T10:40:19;19.30;61.40
10538;DHT22;5317;49.048;8.468;2023-05-16T10:42:54;19.20;61.90
10538;DHT22;5317;49.048;8.468;2023-05-16T10:45:22;19.10;62.00
10538;DHT22;5317;49.048;8.468;2023-05-16T10:47:53;19.00;61.90
10538;DHT22;5317;49.048;8.468;2023-05-16T10:50:35;19.00;62.00
10538;DHT22;5317;49.048;8.468;2023-05-16T10:53:19;18.90;61.90
10538;DHT22;5317;49.048;8.468;2023-05-16T10:56:05;18.80;62.00
10538;DHT22;5317;49.048;8.468;2023-05-16T10:58:40;18.80;62.30
10538;DHT22;5317;49.048;8.468;2023-05-16T11:01:15;18.80;62.60
10538;DHT22;5317;49.048;8.468;2023-05-16T11:04:03;18.70;62.10
10538;DHT22;5317;49.048;8.468;2023-05-16T11:06:33;18.70;62.10
10538;DHT22;5317;49.048;8.468;2023-05-16T11:09:16;18.90;62.20
10538;DHT22;5317;49.048;8.468;2023-05-16T11:11:45;18.90;61.10
10538;DHT22;5317;49.048;8.468;2023-05-16T11:14:19;19.00;61.10
10538;DHT22;5317;49.048;8.468;2023-05-16T11:16:48;18.90;60.90
10538;DHT22;5317;49.048;8.468;2023-05-16T11:19:28;18.90;61.60
10538;DHT22;5317;49.048;8.468;2023-05-16T11:22:19;19.00;62.30
10538;DHT22;5317;49.048;8.468;2023-05-16T11:24:53;19.10;61.60
10538;DHT22;5317;49.048;8.468;2023-05-16T11:27:21;19.20;61.70
10538;DHT22;5317;49.048;8.468;2023-05-16T11:29:49;19.20;61.30
10538;DHT22;5317;49.048;8.468;2023-05-16T11:32:19;19.30;60.50
10538;DHT22;5317;49.048;8.468;2023-05-16T11:34:47;19.40;60.40
10538;DHT22;5317;49.048;8.468;2023-05-16T11:37:17;19.40;59.50
10538;DHT22;5317;49.048;8.468;2023-05-16T11:39:44;19.40;59.80
10538;DHT22;5317;49.048;8.468;2023-05-16T11:42:11;19.50;60.00
10538;DHT22;5317;49.048;8.468;2023-05-16T11:44:39;19.50;59.50
10538;DHT22;5317;49.048;8.468;2023-05-16T11:47:07;19.50;60.10
10538;DHT22;5317;49.048;8.468;2023-05-16T11:49:34;19.50;60.90
10538;DHT22;5317;49.048;8.468;2023-05-16T11:52:01;19.60;60.20
10538;DHT22;5317;49.048;8.468;2023-05-16T11:54:29;19.60;60.00
10538;DHT22;5317;49.048;8.468;2023-05-16T11:56:57;19.60;59.50
10538;DHT22;5317;49.048;8.468;2023-05-16T11:59:24;19.50;59.30
10538;DHT22;5317;49.048;8.468;2023-05-16T12:01:51;19.40;59.10
10538;DHT22;5317;49.048;8.468;2023-05-16T12:04:18;19.30;59.70
10538;DHT22;5317;49.048;8.468;2023-05-16T12:06:57;19.20;58.90
10538;DHT22;5317;49.048;8.468;2023-05-16T12:09:25;19.30;59.10
10538;DHT22;5317;49.048;8.468;2023-05-16T12:11:54;19.30;59.00
10538;DHT22;5317;49.048;8.468;2023-05-16T12:14:21;19.30;59.00
10538;DHT22;5317;49.048;8.468;2023-05-16T12:16:50;19.20;58.60
10538;DHT22;5317;49.048;8.468;2023-05-16T12:19:17;19.30;58.60
10538;DHT22;5317;49.048;8.468;2023-05-16T12:21:44;19.40;58.50
10538;DHT22;5317;49.048;8.468;2023-05-16T12:24:11;19.40;58.70
10538;DHT22;5317;49.048;8.468;2023-05-16T12:26:40;19.50;58.80
10538;DHT22;5317;49.048;8.468;2023-05-16T12:29:10;19.50;58.50
10538;DHT22;5317;49.048;8.468;2023-05-16T12:31:39;19.50;58.40
10538;DHT22;5317;49.048;8.468;2023-05-16T12:34:16;19.50;58.70
10538;DHT22;5317;49.048;8.468;2023-05-16T12:36:43;19.40;58.60
10538;DHT22;5317;49.048;8.468;2023-05-16T12:39:11;19.40;58.90
10538;DHT22;5317;49.048;8.468;2023-05-16T12:41:40;19.40;58.80
10538;DHT22;5317;49.048;8.468;2023-05-16T12:44:12;19.30;59.00
10538;DHT22;5317;49.048;8.468;2023-05-16T12:46:45;19.30;59.00
10538;DHT22;5317;49.048;8.468;2023-05-16T12:49:13;19.30;59.30
10538;DHT22;5317;49.048;8.468;2023-05-16T12:51:40;19.30;59.30
10538;DHT22;5317;49.048;8.468;2023-05-16T12:54:13;19.30;59.20
10538;DHT22;5317;49.048;8.468;2023-05-16T12:56:41;19.20;58.90
10538;DHT22;5317;49.048;8.468;2023-05-16T12:59:08;19.20;58.80
10538;DHT22;5317;49.048;8.468;2023-05-16T13:01:38;19.20;58.90
10538;DHT22;5317;49.048;8.468;2023-05-16T13:04:07;19.20;58.80
10538;DHT22;5317;49.048;8.468;2023-05-16T13:06:39;19.20;58.90
10538;DHT22;5317;49.048;8.468;2023-05-16T13:09:06;19.20;58.80
10538;DHT22;5317;49.048;8.468;2023-05-16T13:11:33;19.20;58.70
10538;DHT22;5317;49.048;8.468;2023-05-16T13:14:00;19.20;59.40
10538;DHT22;5317;49.048;8.468;2023-05-16T13:16:27;19.30;58.80
10538;DHT22;5317;49.048;8.468;2023-05-16T13:18:55;19.30;59.00
10538;DHT22;5317;49.048;8.468;2023-05-16T13:21:23;19.40;58.90
10538;DHT22;5317;49.048;8.468;2023-05-16T13:23:52;19.50;58.60
10538;DHT22;5317;49.048;8.468;2023-05-16T13:26:19;19.50;58.00
10538;DHT22;5317;49.048;8.468;2023-05-16T13:28:46;19.50;58.00
10538;DHT22;5317;49.048;8.468;2023-05-16T13:31:16;19.60;57.80
10538;DHT22;5317;49.048;8.468;2023-05-16T13:33:42;19.70;57.30
10538;DHT22;5317;49.048;8.468;2023-05-16T13:36:11;19.90;56.90
10538;DHT22;5317;49.048;8.468;2023-05-16T13:38:38;20.00;56.90
10538;DHT22;5317;49.048;8.468;2023-05-16T13:41:05;20.00;56.90
10538;DHT22;5317;49.048;8.468;2023-05-16T13:43:32;20.10;56.50
10538;DHT22;5317;49.048;8.468;2023-05-16T13:45:59;20.00;56.00
10538;DHT22;5317;49.048;8.468;2023-05-16T13:48:26;20.00;55.40
10538;DHT22;5317;49.048;8.468;2023-05-16T13:50:53;20.00;55.40
10538;DHT22;5317;49.048;8.468;2023-05-16T13:53:21;20.00;54.50
10538;DHT22;5317;49.048;8.468;2023-05-16T13:55:49;19.90;54.10
10538;DHT22;5317;49.048;8.468;2023-05-16T13:58:16;20.00;54.70
10538;DHT22;5317;49.048;8.468;2023-05-16T14:00:42;20.00;54.70
10538;DHT22;5317;49.048;8.468;2023-05-16T14:03:09;20.00;54.90
10538;DHT22;5317;49.048;8.468;2023-05-16T14:05:36;20.00;54.70
10538;DHT22;5317;49.048;8.468;2023-05-16T14:08:04;20.00;54.10
10538;DHT22;5317;49.048;8.468;2023-05-16T14:10:32;20.10;53.80
10538;DHT22;5317;49.048;8.468;2023-05-16T14:12:59;20.10;53.60
10538;DHT22;5317;49.048;8.468;2023-05-16T14:15:26;20.10;53.40
10538;DHT22;5317;49.048;8.468;2023-05-16T14:17:53;20.20;53.50
10538;DHT22;5317;49.048;8.468;2023-05-16T14:20:20;20.20;53.90
10538;DHT22;5317;49.048;8.468;2023-05-16T14:22:47;20.30;54.20
10538;DHT22;5317;49.048;8.468;2023-05-16T14:25:14;20.30;54.10
10538;DHT22;5317;49.048;8.468;2023-05-16T14:27:42;20.30;53.60
10538;DHT22;5317;49.048;8.468;2023-05-16T14:30:10;20.30;53.10
10538;DHT22;5317;49.048;8.468;2023-05-16T14:32:37;20.40;53.20
10538;DHT22;5317;49.048;8.468;2023-05-16T14:35:05;20.40;53.50
10538;DHT22;5317;49.048;8.468;2023-05-16T14:37:32;20.40;52.90
10538;DHT22;5317;49.048;8.468;2023-05-16T14:39:59;20.40;52.90
10538;DHT22;5317;49.048;8.468;2023-05-16T14:42:26;20.40;53.60
10538;DHT22;5317;49.048;8.468;2023-05-16T14:44:54;20.40;53.00
10538;DHT22;5317;49.048;8.468;2023-05-16T14:47:22;20.40;52.60
10538;DHT22;5317;49.048;8.468;2023-05-16T14:49:49;20.40;52.40
10538;DHT22;5317;49.048;8.468;2023-05-16T14:52:17;20.40;52.60
10538;DHT22;5317;49.048;8.468;2023-05-16T14:54:44;20.40;52.00
10538;DHT22;5317;49.048;8.468;2023-05-16T14:57:11;20.40;51.60
10538;DHT22;5317;49.048;8.468;2023-05-16T14:59:38;20.30;51.70
10538;DHT22;5317;49.048;8.468;2023-05-16T15:02:06;20.40;51.60
10538;DHT22;5317;49.048;8.468;2023-05-16T15:04:33;20.40;51.30
10538;DHT22;5317;49.048;8.468;2023-05-16T15:07:00;20.40;51.30
10538;DHT22;5317;49.048;8.468;2023-05-16T15:09:27;20.40;51.50
10538;DHT22;5317;49.048;8.468;2023-05-16T15:11:54;20.40;51.20
10538;DHT22;5317;49.048;8.468;2023-05-16T15:14:21;20.30;51.00
10538;DHT22;5317;49.048;8.468;2023-05-16T15:16:48;20.30;50.00
10538;DHT22;5317;49.048;8.468;2023-05-16T15:19:16;20.30;50.00
10538;DHT22;5317;49.048;8.468;2023-05-16T15:21:43;20.30;50.20
10538;DHT22;5317;49.048;8.468;2023-05-16T15:24:10;20.30;50.80
10538;DHT22;5317;49.048;8.468;2023-05-16T15:26:37;20.30;50.60
10538;DHT22;5317;49.048;8.468;2023-05-16T15:29:05;20.30;50.40
10538;DHT22;5317;49.048;8.468;2023-05-16T15:31:32;20.30;50.50
10538;DHT22;5317;49.048;8.468;2023-05-16T15:34:01;20.40;50.10
10538;DHT22;5317;49.048;8.468;2023-05-16T15:36:32;20.30;49.90
10538;DHT22;5317;49.048;8.468;2023-05-16T15:38:58;20.30;49.50
10538;DHT22;5317;49.048;8.468;2023-05-16T15:41:26;20.30;49.70
10538;DHT22;5317;49.048;8.468;2023-05-16T15:43:53;20.30;50.20
10538;DHT22;5317;49.048;8.468;2023-05-16T15:46:20;20.30;50.30
10538;DHT22;5317;49.048;8.468;2023-05-16T15:48:47;20.30;49.50
10538;DHT22;5317;49.048;8.468;2023-05-16T15:51:14;20.30;49.60
10538;DHT22;5317;49.048;8.468;2023-05-16T15:53:42;20.30;49.40
10538;DHT22;5317;49.048;8.468;2023-05-16T15:56:09;20.40;49.30
10538;DHT22;5317;49.048;8.468;2023-05-16T15:58:36;20.40;49.40
10538;DHT22;5317;49.048;8.468;2023-05-16T16:01:03;20.40;49.50
10538;DHT22;5317;49.048;8.468;2023-05-16T16:03:30;20.50;50.00
10538;DHT22;5317;49.048;8.468;2023-05-16T16:05:57;20.60;50.20
10538;DHT22;5317;49.048;8.468;2023-05-16T16:08:24;20.60;49.90
10538;DHT22;5317;49.048;8.468;2023-05-16T16:10:52;20.60;50.00
10538;DHT22;5317;49.048;8.468;2023-05-16T16:13:19;20.60;49.60
10538;DHT22;5317;49.048;8.468;2023-05-16T16:15:49;20.60;49.30